Fayetteville, AR (72703)

8:30 PM CST on December 03, 2016 (GMT -0600)
Rolling Hills | | Change Station

Elev 1417 ft 36.10 °N, 94.14 °W | Updated 2 seconds ago

Overcast
Overcast
41.2 °F
Feels Like 41 °F
N
0.0
Wind Variable Wind from NNE
Gusts 1.0 mph

Today
High -- | Low -- °F
--% Chance of Precip.
Yesterday
High -- | Low -- °F
Precip. -- in
Pressure 30.09 in
Visibility 6.0 miles
Clouds Few 900 ft
Overcast 1700 ft
Windchill 41 °F
Dew Point 40 °F
Humidity 95%
Rainfall 0.14 in
Snow Depth Not available.
7:11 AM 5:01 PM
Waxing Crescent, 19% visible
METAR KASG 040148Z 09012KT 6SM BR FEW009 OVC017 05/04 A3009
Pressure 30.09 in
Visibility 6.0 miles
Clouds Few 900 ft
Overcast 1700 ft
Windchill 41 °F
Dew Point 40 °F
Humidity 95%
Rainfall 0.14 in
Snow Depth Not available.
7:11 AM 5:01 PM
Waxing Crescent, 19% visible
METAR KASG 040148Z 09012KT 6SM BR FEW009 OVC017 05/04 A3009

10-Day Weather Forecast

Almanac

Astronomy

Dec. 03, 2016 Rise Set
Actual Time
Civil Twilight
Nautical Twilight
Astronomical Twilight
Moon
Length of Visible Light
Length of Day
Tomorrow will be .
, % of the Moon is Illuminated

Today's Extremes

State Highs State Lows

Community

WunderPhotos

Upload Photos

1,955,560 photos uploaded!

WunderBlog® & News

Nearby

Air Quality

  Air Quality AQ Index Pollutant
Not available.

Snow Depth

Station Depth Elevation

Earthquake Activity

City Distance Mag. Time & Date
Minimum magnitude displayed is 2.5.

Coastal Water Temperatures

Place Temperature

Stations

Nearby Weather Stations

Station Location Temp. Windchill Dew Point Humidity Wind Precip. Elev Updated Type
                   

Watches & Warnings

There are currently no watches in effect.